createdAt,value
2023-05-19T00:02:01.121Z,97057.38
2023-05-19T00:04:30.136Z,97058.28
2023-05-19T00:07:01.347Z,97060.50
2023-05-19T00:09:30.189Z,97053.81
2023-05-19T00:11:59.213Z,97051.41
2023-05-19T00:14:29.010Z,97047.34
2023-05-19T00:16:59.176Z,97057.78
2023-05-19T00:19:32.220Z,97053.13
2023-05-19T00:22:00.525Z,97049.91
2023-05-19T00:24:29.079Z,97053.13
2023-05-19T00:26:57.208Z,97055.81
2023-05-19T00:29:25.616Z,97058.03
2023-05-19T00:31:53.921Z,97053.38
2023-05-19T00:34:23.444Z,97050.75
2023-05-19T00:36:51.828Z,97047.50
2023-05-19T00:39:23.954Z,97047.94
2023-05-19T00:41:52.129Z,97042.84
2023-05-19T00:44:20.242Z,97035.56
2023-05-19T00:46:48.437Z,97032.97
2023-05-19T00:49:16.485Z,97030.00
2023-05-19T00:51:46.446Z,97028.81
2023-05-19T00:54:14.554Z,97029.75
2023-05-19T00:56:42.906Z,97031.78
2023-05-19T00:59:11.106Z,97032.59
2023-05-19T01:01:39.946Z,97031.63
2023-05-19T01:04:10.063Z,97029.44
2023-05-19T01:06:38.640Z,97025.34
2023-05-19T01:09:09.049Z,97027.78
2023-05-19T01:11:37.219Z,97031.06
2023-05-19T01:14:05.389Z,97028.81
2023-05-19T01:16:41.455Z,97034.94
2023-05-19T01:19:36.861Z,97033.75
2023-05-19T01:22:23.863Z,97039.84
2023-05-19T01:25:43.620Z,97038.88
2023-05-19T01:28:43.996Z,97038.25
2023-05-19T01:31:14.848Z,97040.31
2023-05-19T01:33:46.631Z,97041.13
2023-05-19T01:36:16.927Z,97035.19
2023-05-19T01:38:46.532Z,97035.97
2023-05-19T01:41:15.796Z,97035.66
2023-05-19T01:43:44.110Z,97033.66
2023-05-19T01:46:14.867Z,97035.47
2023-05-19T01:48:45.642Z,97042.22
2023-05-19T01:51:15.096Z,97032.25
2023-05-19T01:53:44.205Z,97029.63
2023-05-19T01:56:13.599Z,97035.72
2023-05-19T01:58:46.920Z,97033.50
2023-05-19T02:01:30.795Z,97034.31
2023-05-19T02:04:14.153Z,97032.88
2023-05-19T02:06:47.384Z,97031.44
2023-05-19T02:09:24.391Z,97031.69
2023-05-19T02:11:57.036Z,97032.06
2023-05-19T02:14:31.663Z,97028.22
2023-05-19T02:17:05.366Z,97027.63
2023-05-19T02:19:36.655Z,97032.66
2023-05-19T02:22:05.310Z,97029.03
2023-05-19T02:24:33.628Z,97030.03
2023-05-19T02:27:01.792Z,97032.50
2023-05-19T02:29:30.002Z,97034.97
2023-05-19T02:31:58.128Z,97044.53
2023-05-19T02:34:28.073Z,97044.72
2023-05-19T02:36:56.566Z,97044.34
2023-05-19T02:39:24.640Z,97040.28
2023-05-19T02:41:52.951Z,97037.88
2023-05-19T02:44:21.185Z,97034.63
2023-05-19T02:46:49.328Z,97032.78
2023-05-19T02:49:17.588Z,97023.69
2023-05-19T02:51:47.028Z,97019.41
2023-05-19T02:54:15.137Z,97022.25
2023-05-19T02:56:43.297Z,97023.06
2023-05-19T02:59:11.398Z,97017.38
2023-05-19T03:01:40.480Z,97017.38
2023-05-19T03:04:09.058Z,97009.03
2023-05-19T03:06:37.670Z,97012.06
2023-05-19T03:09:07.354Z,97018.16
2023-05-19T03:11:35.487Z,97014.91
2023-05-19T03:14:03.604Z,97013.47
2023-05-19T03:16:32.525Z,97017.53
2023-05-19T03:19:01.883Z,97018.34
2023-05-19T03:21:31.986Z,97009.81
2023-05-19T03:24:00.257Z,97017.72
2023-05-19T03:26:30.440Z,97014.69
2023-05-19T03:28:58.620Z,97010.78
2023-05-19T03:31:27.199Z,97010.00
2023-05-19T03:33:57.796Z,97004.72
2023-05-19T03:36:26.288Z,97009.19
2023-05-19T03:38:54.688Z,97010.78
2023-05-19T03:41:22.819Z,97017.72
2023-05-19T03:43:52.225Z,97018.72
2023-05-19T03:46:20.747Z,97019.53
2023-05-19T03:48:58.023Z,97020.97
2023-05-19T03:51:36.673Z,97026.25
2023-05-19T03:54:17.963Z,97026.06
2023-05-19T03:56:46.165Z,97030.50
2023-05-19T03:59:16.223Z,97025.63
2023-05-19T04:01:44.342Z,97035.00
2023-05-19T04:04:12.455Z,97030.72
2023-05-19T04:06:40.781Z,97028.72
2023-05-19T04:09:14.413Z,97026.91
2023-05-19T04:11:43.069Z,97025.28
2023-05-19T04:14:11.465Z,97027.94
2023-05-19T04:16:41.707Z,97034.22
2023-05-19T04:19:10.212Z,97033.84
2023-05-19T04:21:38.365Z,97036.69
2023-05-19T04:24:32.535Z,97036.69
2023-05-19T04:27:02.764Z,97041.38
2023-05-19T04:29:32.853Z,97041.97
2023-05-19T04:32:07.801Z,97040.56
2023-05-19T04:34:40.318Z,97036.88
2023-05-19T04:37:10.158Z,97039.13
2023-05-19T04:39:41.354Z,97040.34
2023-05-19T04:42:14.658Z,97037.31
2023-05-19T04:44:42.739Z,97037.53
2023-05-19T04:47:12.517Z,97039.97
2023-05-19T04:49:40.714Z,97037.09
2023-05-19T04:52:16.057Z,97034.25
2023-05-19T04:54:44.297Z,97033.03
2023-05-19T04:57:15.021Z,97040.75
2023-05-19T04:59:43.330Z,97045.44
2023-05-19T05:02:13.208Z,97050.75
2023-05-19T05:04:44.119Z,97042.81
2023-05-19T05:07:15.463Z,97042.81
2023-05-19T05:09:44.217Z,97046.88
2023-05-19T05:12:38.922Z,97047.06
2023-05-19T05:15:09.141Z,97046.66
2023-05-19T05:17:40.172Z,97049.91
2023-05-19T05:20:10.143Z,97037.13
2023-05-19T05:22:39.600Z,97038.75
2023-05-19T05:25:11.416Z,97044.25
2023-05-19T05:27:39.651Z,97041.41
2023-05-19T05:30:10.476Z,97047.25
2023-05-19T05:32:40.866Z,97038.97
2023-05-19T05:35:16.393Z,97039.94
2023-05-19T05:37:44.734Z,97042.38
2023-05-19T05:40:14.299Z,97036.88
2023-05-19T05:42:44.290Z,97039.97
2023-05-19T05:45:12.921Z,97041.59
2023-05-19T05:47:44.191Z,97046.84
2023-05-19T05:50:14.531Z,97044.59
2023-05-19T05:52:46.659Z,97046.78
2023-05-19T05:55:18.361Z,97042.44
2023-05-19T05:57:48.759Z,97046.69
2023-05-19T06:00:18.298Z,97047.97
2023-05-19T06:02:54.831Z,97049.44
2023-05-19T06:05:23.223Z,97040.28
2023-05-19T06:07:51.490Z,97047.41
2023-05-19T06:10:24.297Z,97050.66
2023-05-19T06:12:52.683Z,97052.63
2023-05-19T06:15:22.823Z,97049.59
2023-05-19T06:18:12.819Z,97046.16
2023-05-19T06:20:41.415Z,97042.72
2023-05-19T06:23:09.733Z,97041.47
2023-05-19T06:25:37.942Z,97041.63
2023-05-19T06:28:06.972Z,97041.25
2023-05-19T06:30:36.715Z,97043.53
2023-05-19T06:33:23.054Z,97044.19
2023-05-19T06:35:51.291Z,97039.25
2023-05-19T06:38:19.536Z,97046.34
2023-05-19T06:40:47.902Z,97038.78
2023-05-19T06:43:16.085Z,97033.59
2023-05-19T06:45:56.097Z,97031.63
2023-05-19T06:48:27.658Z,97033.84
2023-05-19T06:50:56.065Z,97040.81
2023-05-19T06:53:25.694Z,97037.84
2023-05-19T06:55:59.815Z,97040.94
2023-05-19T06:58:35.055Z,97037.47
2023-05-19T07:01:06.275Z,97036.03
2023-05-19T07:03:41.916Z,97037.94
2023-05-19T07:06:11.622Z,97038.09
2023-05-19T07:08:39.870Z,97034.00
2023-05-19T07:11:09.536Z,97041.72
2023-05-19T07:13:37.666Z,97048.25
2023-05-19T07:16:06.602Z,97044.41
2023-05-19T07:18:35.490Z,97038.50
2023-05-19T07:21:05.577Z,97041.22
2023-05-19T07:23:33.757Z,97040.66
2023-05-19T07:26:02.073Z,97041.16
2023-05-19T07:28:30.194Z,97037.41
2023-05-19T07:30:58.379Z,97025.38
2023-05-19T07:33:27.014Z,97032.00
2023-05-19T07:35:55.172Z,97034.75
2023-05-19T07:38:24.611Z,97027.56
2023-05-19T07:40:52.776Z,97033.78
2023-05-19T07:43:21.034Z,97038.09
2023-05-19T07:45:49.220Z,97025.00
2023-05-19T07:48:18.739Z,97033.72
2023-05-19T07:50:47.258Z,97030.97
2023-05-19T07:53:15.521Z,97026.25
2023-05-19T07:55:45.283Z,97023.41
2023-05-19T07:58:13.433Z,97026.25
2023-05-19T08:00:43.094Z,97025.06
2023-05-19T08:03:11.593Z,97022.28
2023-05-19T08:05:40.630Z,97017.53
2023-05-19T08:08:09.557Z,97012.00
2023-05-19T08:10:38.021Z,97014.78
2023-05-19T08:13:07.463Z,97012.59
2023-05-19T08:15:35.814Z,97011.00
2023-05-19T08:18:05.369Z,97006.47
2023-05-19T08:20:34.129Z,97007.38
2023-05-19T08:23:02.776Z,97007.59
2023-05-19T08:25:31.270Z,97003.56
2023-05-19T08:27:59.457Z,97003.78
2023-05-19T08:30:29.042Z,97011.22
2023-05-19T08:32:57.204Z,97007.31
2023-05-19T08:35:25.899Z,97004.47
2023-05-19T08:37:54.057Z,96995.53
2023-05-19T08:40:22.625Z,96992.19
2023-05-19T08:42:51.347Z,97003.63
2023-05-19T08:45:19.535Z,96994.31
2023-05-19T08:47:50.002Z,96997.28
2023-05-19T08:50:24.868Z,96997.50
2023-05-19T08:52:57.745Z,96994.56
2023-05-19T08:55:35.190Z,97000.53
2023-05-19T08:58:06.017Z,96988.47
2023-05-19T09:00:34.810Z,96997.88
2023-05-19T09:03:17.422Z,96994.34
2023-05-19T09:05:47.388Z,96996.53
2023-05-19T09:08:16.113Z,96996.38
2023-05-19T09:10:44.304Z,96995.84
2023-05-19T09:13:12.607Z,96988.44
2023-05-19T09:15:41.363Z,96988.84
2023-05-19T09:18:13.020Z,96990.59
2023-05-19T09:20:43.807Z,96986.47
2023-05-19T09:23:14.941Z,96981.22
2023-05-19T09:25:51.089Z,96990.34
2023-05-19T09:28:27.336Z,96988.59
2023-05-19T09:31:03.131Z,96992.50
2023-05-19T09:33:35.350Z,96993.97
2023-05-19T09:36:06.039Z,96985.22
2023-05-19T09:38:34.423Z,96987.28
2023-05-19T09:41:02.991Z,96991.41
2023-05-19T09:43:33.473Z,96992.47
2023-05-19T09:46:06.831Z,96994.91
2023-05-19T09:48:37.302Z,96990.50
2023-05-19T09:51:07.853Z,96996.38
2023-05-19T09:53:38.933Z,96988.06
2023-05-19T09:56:09.779Z,96984.75
2023-05-19T09:58:39.097Z,96987.81
2023-05-19T10:01:08.020Z,96984.97
2023-05-19T10:03:38.932Z,96978.88
2023-05-19T10:06:09.150Z,96973.00
2023-05-19T10:08:38.740Z,96982.66
2023-05-19T10:11:07.664Z,96978.59
2023-05-19T10:13:38.496Z,96981.31
2023-05-19T10:16:07.979Z,96984.41
2023-05-19T10:18:40.110Z,96977.09
2023-05-19T10:21:09.797Z,96973.59
2023-05-19T10:23:38.087Z,96973.06
2023-05-19T10:26:07.894Z,96979.00
2023-05-19T10:28:40.580Z,96972.69
2023-05-19T10:31:12.690Z,96972.97
2023-05-19T10:34:14.710Z,96967.13
2023-05-19T10:36:48.657Z,96970.34
2023-05-19T10:39:23.054Z,96969.81
2023-05-19T10:42:05.759Z,96966.72
2023-05-19T10:45:03.639Z,96964.59
2023-05-19T10:47:32.640Z,96970.28
2023-05-19T10:50:06.813Z,96962.66
2023-05-19T10:52:39.174Z,96962.44
2023-05-19T10:55:10.292Z,96962.22
2023-05-19T10:57:38.544Z,96967.34
2023-05-19T11:00:31.447Z,96960.06
2023-05-19T11:03:15.038Z,96968.84
2023-05-19T11:05:45.699Z,96961.28
2023-05-19T11:08:15.870Z,96974.25
2023-05-19T11:10:46.610Z,96977.50
2023-05-19T11:13:23.021Z,96974.75
2023-05-19T11:15:52.827Z,96973.50
2023-05-19T11:18:21.638Z,96974.03
2023-05-19T11:21:02.744Z,96972.44
2023-05-19T11:23:39.212Z,96972.13
2023-05-19T11:26:42.979Z,96969.16
2023-05-19T11:29:15.655Z,96965.47
2023-05-19T11:31:45.309Z,96970.28
2023-05-19T11:34:17.407Z,96970.03
2023-05-19T11:36:48.230Z,96969.00
2023-05-19T11:39:17.711Z,96957.06
2023-05-19T11:41:46.136Z,96967.75
2023-05-19T11:44:14.425Z,96955.88
2023-05-19T11:46:42.611Z,96955.88
2023-05-19T11:49:11.118Z,96956.00
2023-05-19T11:51:39.884Z,96955.53
2023-05-19T11:54:09.522Z,96952.94
2023-05-19T11:56:41.711Z,96943.31
2023-05-19T11:59:10.490Z,96951.66
2023-05-19T12:01:38.634Z,96933.19
2023-05-19T12:04:10.258Z,96944.03
2023-05-19T12:06:38.473Z,96948.78
2023-05-19T12:09:06.855Z,96949.44
2023-05-19T12:11:36.432Z,96950.50
2023-05-19T12:14:04.707Z,96955.56
2023-05-19T12:16:36.213Z,96950.16
2023-05-19T12:19:07.210Z,96952.03
2023-05-19T12:21:36.218Z,96952.75
2023-05-19T12:24:06.043Z,96958.13
2023-05-19T12:26:36.494Z,96960.66
2023-05-19T12:29:07.694Z,96963.69
2023-05-19T12:31:36.378Z,96958.38
2023-05-19T12:34:04.620Z,96955.25
2023-05-19T12:36:33.805Z,96956.88
2023-05-19T12:39:02.145Z,96964.84
2023-05-19T12:41:30.740Z,96957.69
2023-05-19T12:44:03.814Z,96962.13
2023-05-19T12:46:34.234Z,96959.81
2023-05-19T12:49:02.561Z,96953.41
2023-05-19T12:51:54.654Z,96952.00
2023-05-19T12:54:23.162Z,96956.47
2023-05-19T12:56:52.477Z,96963.84
2023-05-19T12:59:37.975Z,96952.00
2023-05-19T13:02:07.970Z,96957.00
2023-05-19T13:04:36.355Z,96962.75
2023-05-19T13:07:04.910Z,96962.53
2023-05-19T13:09:35.228Z,96956.44
2023-05-19T13:12:04.742Z,96956.06
2023-05-19T13:14:34.288Z,96958.06
2023-05-19T13:17:03.273Z,96958.41
2023-05-19T13:19:31.443Z,96950.69
2023-05-19T13:21:59.931Z,96951.28
2023-05-19T13:24:28.095Z,96945.41
2023-05-19T13:26:56.338Z,96943.44
2023-05-19T13:29:24.681Z,96942.19
2023-05-19T13:31:54.500Z,96939.63
2023-05-19T13:34:23.239Z,96939.63
2023-05-19T13:36:51.462Z,96940.78
2023-05-19T13:39:19.866Z,96937.25
2023-05-19T13:41:47.995Z,96936.31
2023-05-19T13:44:16.676Z,96932.38
2023-05-19T13:46:46.515Z,96934.44
2023-05-19T13:49:17.592Z,96943.78
2023-05-19T13:51:45.755Z,96944.59
2023-05-19T13:54:19.369Z,96935.38
2023-05-19T13:56:48.709Z,96936.91
2023-05-19T13:59:17.732Z,96931.34
2023-05-19T14:01:46.506Z,96925.81
2023-05-19T14:04:15.288Z,96925.00
2023-05-19T14:06:44.974Z,96922.47
2023-05-19T14:09:13.759Z,96919.81
2023-05-19T14:11:41.892Z,96915.91
2023-05-19T14:14:11.455Z,96913.13
2023-05-19T14:16:40.067Z,96911.28
2023-05-19T14:19:08.552Z,96919.56
2023-05-19T14:21:38.053Z,96912.44
2023-05-19T14:24:08.097Z,96910.47
2023-05-19T14:26:36.560Z,96911.50
2023-05-19T14:29:04.954Z,96909.44
2023-05-19T14:31:34.262Z,96910.72
2023-05-19T14:34:02.503Z,96908.53
2023-05-19T14:36:31.162Z,96908.06
2023-05-19T14:38:59.253Z,96906.56
2023-05-19T14:41:28.974Z,96909.66
2023-05-19T14:43:57.085Z,96916.13
2023-05-19T14:46:25.232Z,96911.38
2023-05-19T14:48:53.347Z,96917.38
2023-05-19T14:51:21.731Z,96913.81
2023-05-19T14:53:50.354Z,96925.13
2023-05-19T14:56:18.530Z,96916.47
2023-05-19T14:58:48.001Z,96909.44
2023-05-19T15:01:16.295Z,96917.97
2023-05-19T15:03:44.507Z,96919.59
2023-05-19T15:06:12.635Z,96917.84
2023-05-19T15:08:41.115Z,96914.28
2023-05-19T15:11:09.297Z,96910.59
2023-05-19T15:13:37.383Z,96905.97
2023-05-19T15:16:17.295Z,96901.59
2023-05-19T15:18:46.097Z,96898.50
2023-05-19T15:21:14.386Z,96895.50
2023-05-19T15:23:42.544Z,96901.72
2023-05-19T15:26:10.873Z,96893.84
2023-05-19T15:28:39.117Z,96893.03
2023-05-19T15:31:09.303Z,96893.53
2023-05-19T15:33:37.720Z,96887.16
2023-05-19T15:36:07.073Z,96890.50
2023-05-19T15:38:37.120Z,96894.91
2023-05-19T15:41:08.852Z,96888.81
2023-05-19T15:43:37.119Z,96890.06
2023-05-19T15:46:05.945Z,96888.09
2023-05-19T15:48:35.605Z,96880.13
2023-05-19T15:51:03.837Z,96885.44
2023-05-19T15:53:32.021Z,96883.94
2023-05-19T15:56:01.432Z,96878.63
2023-05-19T15:58:32.620Z,96885.78
2023-05-19T16:01:05.285Z,96875.19
2023-05-19T16:03:35.099Z,96877.00
2023-05-19T16:06:03.579Z,96877.00
2023-05-19T16:08:31.864Z,96866.06
2023-05-19T16:11:01.763Z,96862.72
2023-05-19T16:13:34.181Z,96857.63
2023-05-19T16:16:02.955Z,96852.09
2023-05-19T16:18:31.115Z,96855.31
2023-05-19T16:21:00.573Z,96853.09
2023-05-19T16:23:28.764Z,96847.13
2023-05-19T16:25:57.509Z,96841.56
2023-05-19T16:28:26.019Z,96850.72
2023-05-19T16:30:57.648Z,96849.22
2023-05-19T16:33:25.987Z,96846.06
2023-05-19T16:35:54.185Z,96845.09
2023-05-19T16:38:23.780Z,96841.97
2023-05-19T16:40:52.011Z,96841.28
2023-05-19T16:43:20.137Z,96839.13
2023-05-19T16:45:49.121Z,96840.13
2023-05-19T16:48:17.275Z,96850.91
2023-05-19T16:50:45.444Z,96842.81
2023-05-19T16:53:13.597Z,96835.53
2023-05-19T16:55:43.082Z,96835.09
2023-05-19T16:58:12.053Z,96831.19
2023-05-19T17:00:40.304Z,96832.88
2023-05-19T17:03:08.778Z,96836.66
2023-05-19T17:05:38.980Z,96840.94
2023-05-19T17:08:07.198Z,96837.94
2023-05-19T17:10:36.034Z,96836.44
2023-05-19T17:13:05.760Z,96828.91
2023-05-19T17:15:35.272Z,96832.59
2023-05-19T17:18:03.652Z,96831.44
2023-05-19T17:20:32.261Z,96826.81
2023-05-19T17:23:00.707Z,96829.00
2023-05-19T17:25:30.688Z,96819.66
2023-05-19T17:27:58.757Z,96818.63
2023-05-19T17:30:28.335Z,96829.22
2023-05-19T17:32:58.956Z,96822.78
2023-05-19T17:35:28.552Z,96826.00
2023-05-19T17:37:57.912Z,96823.59
2023-05-19T17:40:26.194Z,96825.22
2023-05-19T17:42:54.320Z,96820.94
2023-05-19T17:45:23.259Z,96823.09
2023-05-19T17:47:52.733Z,96817.78
2023-05-19T17:50:20.847Z,96821.50
2023-05-19T17:52:49.808Z,96814.34
2023-05-19T17:55:19.081Z,96819.66
2023-05-19T17:57:48.363Z,96824.84
2023-05-19T18:00:17.453Z,96819.53
2023-05-19T18:02:46.725Z,96816.88
2023-05-19T18:05:18.463Z,96819.31
2023-05-19T18:07:47.047Z,96822.47
2023-05-19T18:10:17.272Z,96824.06
2023-05-19T18:12:45.949Z,96817.28
2023-05-19T18:15:16.988Z,96822.72
2023-05-19T18:17:45.136Z,96817.41
2023-05-19T18:20:14.407Z,96819.50
2023-05-19T18:22:43.996Z,96811.19
2023-05-19T18:25:12.112Z,96814.00
2023-05-19T18:27:42.548Z,96805.69
2023-05-19T18:30:11.463Z,96809.50
2023-05-19T18:32:39.887Z,96801.47
2023-05-19T18:35:09.496Z,96801.38
2023-05-19T18:37:37.814Z,96806.34
2023-05-19T18:40:09.491Z,96805.75
2023-05-19T18:42:37.800Z,96806.94
2023-05-19T18:45:07.502Z,96805.78
2023-05-19T18:47:35.702Z,96810.97
2023-05-19T18:50:04.307Z,96806.16
2023-05-19T18:52:32.463Z,96808.22
2023-05-19T18:55:01.581Z,96805.44
2023-05-19T18:57:31.041Z,96797.91
2023-05-19T18:59:59.316Z,96790.91
2023-05-19T19:02:28.315Z,96796.06
2023-05-19T19:04:56.879Z,96795.97
2023-05-19T19:07:26.722Z,96800.13
2023-05-19T19:09:54.918Z,96798.38
2023-05-19T19:12:23.148Z,96807.28
2023-05-19T19:14:52.616Z,96802.41
2023-05-19T19:17:21.040Z,96805.53
2023-05-19T19:19:49.694Z,96806.47
2023-05-19T19:22:17.976Z,96809.56
2023-05-19T19:24:46.362Z,96817.38
2023-05-19T19:27:16.342Z,96819.09
2023-05-19T19:29:44.705Z,96823.03
2023-05-19T19:32:14.220Z,96826.00
2023-05-19T19:34:42.367Z,96829.31
2023-05-19T19:37:11.084Z,96828.97
2023-05-19T19:39:39.459Z,96830.25
2023-05-19T19:42:07.667Z,96830.91
2023-05-19T19:44:35.867Z,96827.66
2023-05-19T19:47:06.150Z,96817.31
2023-05-19T19:49:36.107Z,96816.38
2023-05-19T19:52:04.607Z,96816.38
2023-05-19T19:54:33.138Z,96819.47
2023-05-19T19:57:01.656Z,96809.78
2023-05-19T19:59:30.590Z,96805.38
2023-05-19T20:01:58.873Z,96814.72
2023-05-19T20:04:33.391Z,96811.69
2023-05-19T20:07:03.141Z,96805.75
2023-05-19T20:09:31.315Z,96806.91
2023-05-19T20:11:59.466Z,96806.97
2023-05-19T20:14:27.658Z,96805.38
2023-05-19T20:16:55.863Z,96812.25
2023-05-19T20:19:29.097Z,96811.44
2023-05-19T20:21:57.340Z,96819.69
2023-05-19T20:24:26.910Z,96813.63
2023-05-19T20:26:55.094Z,96809.81
2023-05-19T20:29:23.879Z,96809.44
2023-05-19T20:31:52.055Z,96814.28
2023-05-19T20:34:20.235Z,96815.09
2023-05-19T20:36:48.468Z,96806.34
2023-05-19T20:39:16.605Z,96810.84
2023-05-19T20:41:46.242Z,96801.88
2023-05-19T20:44:15.256Z,96807.94
2023-05-19T20:46:43.461Z,96804.53
2023-05-19T20:49:11.627Z,96804.88
2023-05-19T20:51:39.767Z,96800.38
2023-05-19T20:54:08.096Z,96802.91
2023-05-19T20:56:36.357Z,96796.66
2023-05-19T20:59:05.965Z,96787.56
2023-05-19T21:01:34.158Z,96791.69
2023-05-19T21:04:06.671Z,96798.38
2023-05-19T21:06:35.478Z,96792.84
2023-05-19T21:09:06.537Z,96795.03
2023-05-19T21:11:34.844Z,96788.50
2023-05-19T21:14:04.912Z,96789.31
2023-05-19T21:16:34.006Z,96783.66
2023-05-19T21:19:02.762Z,96788.72
2023-05-19T21:21:31.666Z,96788.72
2023-05-19T21:24:00.426Z,96784.69
2023-05-19T21:26:28.515Z,96780.19
2023-05-19T21:28:56.935Z,96779.63
2023-05-19T21:31:27.822Z,96783.28
2023-05-19T21:33:55.954Z,96780.41
2023-05-19T21:36:24.069Z,96777.34
2023-05-19T21:38:52.236Z,96783.44
2023-05-19T21:41:21.263Z,96779.53
2023-05-19T21:43:49.482Z,96775.13
2023-05-19T21:46:20.306Z,96765.81
2023-05-19T21:48:49.803Z,96769.72
2023-05-19T21:51:17.828Z,96772.44
2023-05-19T21:53:46.150Z,96759.88
2023-05-19T21:56:14.537Z,96762.28
2023-05-19T21:58:42.663Z,96761.22
2023-05-19T22:01:10.934Z,96753.88
2023-05-19T22:03:39.172Z,96745.94
2023-05-19T22:06:09.322Z,96751.78
2023-05-19T22:08:37.974Z,96749.94
2023-05-19T22:11:06.721Z,96758.91
2023-05-19T22:13:37.389Z,96755.66
2023-05-19T22:16:06.170Z,96756.69
2023-05-19T22:18:34.415Z,96744.28
2023-05-19T22:21:02.610Z,96746.63
2023-05-19T22:23:32.223Z,96745.69
2023-05-19T22:26:00.850Z,96738.13
2023-05-19T22:28:28.985Z,96740.31
2023-05-19T22:30:57.217Z,96741.13
2023-05-19T22:33:25.322Z,96737.91
2023-05-19T22:35:53.548Z,96735.13
2023-05-19T22:38:21.746Z,96736.59
2023-05-19T22:40:51.254Z,96734.41
2023-05-19T22:43:19.424Z,96734.03
2023-05-19T22:45:47.630Z,96736.31
2023-05-19T22:48:16.312Z,96736.16
2023-05-19T22:50:44.501Z,96733.38
2023-05-19T22:53:12.586Z,96742.34
2023-05-19T22:55:40.846Z,96734.97
2023-05-19T22:58:10.307Z,96739.03
2023-05-19T23:00:38.395Z,96734.97
2023-05-19T23:03:06.550Z,96731.34
2023-05-19T23:05:35.369Z,96729.25
2023-05-19T23:08:03.791Z,96732.34
2023-05-19T23:10:31.946Z,96731.13
2023-05-19T23:13:00.072Z,96728.00
2023-05-19T23:15:29.663Z,96732.50
2023-05-19T23:17:57.844Z,96730.06
2023-05-19T23:20:25.989Z,96728.22
2023-05-19T23:22:54.135Z,96731.25
2023-05-19T23:25:22.287Z,96720.69
2023-05-19T23:27:50.376Z,96719.19
2023-05-19T23:30:18.731Z,96723.03
2023-05-19T23:32:48.293Z,96712.44
2023-05-19T23:35:18.204Z,96711.53
2023-05-19T23:37:46.297Z,96709.84
2023-05-19T23:40:15.010Z,96711.97
2023-05-19T23:42:44.558Z,96702.09
2023-05-19T23:45:13.099Z,96706.34
2023-05-19T23:47:41.358Z,96705.59
2023-05-19T23:50:11.721Z,96707.09
2023-05-19T23:52:39.880Z,96689.63
2023-05-19T23:55:09.859Z,96704.97
2023-05-19T23:57:38.135Z,96703.59
